Time;durP1;ratioP1;P1;durP2;ratioP2;P2;SDS_P1;SDS_P2;PMS_P1;PMS_P2;Temp;Humidity;BMP_temperature;BMP_pressure;BME280_temperature;BME280_humidity;BME280_pressure;Samples;Min_cycle;Max_cycle;Signal;HPM_P1;HPM_P2
2022/11/13 00:02:25;;;;;;;9.27;7.97;;;11.10;74.80;;;14.01;54.63;102841.38;5076059;28;20735;-62
2022/11/13 00:04:53;;;;;;;8.93;7.60;;;11.10;74.60;;;14.01;54.82;102845.81;5076049;28;20285;-61
2022/11/13 00:07:20;;;;;;;10.63;8.23;;;11.20;74.70;;;14.04;54.56;102856.13;5076041;28;20197;-60
2022/11/13 00:09:47;;;;;;;9.80;7.70;;;11.20;74.40;;;14.03;54.37;102851.81;5075981;28;20270;-61
2022/11/13 00:12:15;;;;;;;9.17;8.27;;;11.20;74.00;;;13.99;54.06;102859.22;5074384;28;20270;-61
2022/11/13 00:14:43;;;;;;;9.30;8.37;;;11.20;73.80;;;13.96;54.22;102853.34;5090524;28;20203;-62
2022/11/13 00:17:10;;;;;;;9.00;7.73;;;11.20;73.90;;;13.92;54.43;102854.63;5114071;28;20187;-62
2022/11/13 00:19:37;;;;;;;8.63;7.20;;;11.10;74.10;;;13.93;54.79;102858.97;5095411;28;20673;-62
2022/11/13 00:22:04;;;;;;;8.17;7.37;;;11.10;74.50;;;13.96;54.73;102867.44;5096617;28;20213;-61
2022/11/13 00:24:31;;;;;;;9.00;7.97;;;11.10;74.50;;;14.02;54.55;102868.69;5095946;28;20257;-62
2022/11/13 00:26:58;;;;;;;9.67;8.07;;;11.20;74.60;;;14.07;54.43;102866.44;5095332;28;20192;-61
2022/11/13 00:29:26;;;;;;;10.90;8.07;;;11.20;74.20;;;14.13;54.24;102863.19;5093992;28;20193;-64
2022/11/13 00:31:53;;;;;;;9.67;7.50;;;11.30;74.10;;;14.16;54.04;102860.28;5090580;28;20734;-61
2022/11/13 00:34:20;;;;;;;10.03;7.63;;;11.30;73.30;;;14.14;53.81;102859.59;5095440;28;20196;-61
2022/11/13 00:37:07;;;;;;;9.00;8.10;;;11.30;72.80;;;14.08;53.86;102860.16;5095768;28;20221;-62
2022/11/13 00:39:34;;;;;;;9.60;7.60;;;11.30;73.10;;;14.10;53.74;102855.53;5095444;28;20234;-60
2022/11/13 00:42:01;;;;;;;8.77;7.57;;;11.30;73.00;;;14.12;53.95;102858.91;5095530;28;20661;-61
2022/11/13 00:44:29;;;;;;;8.10;7.30;;;11.40;73.30;;;14.18;53.46;102853.84;5096050;28;20192;-62
2022/11/13 00:46:56;;;;;;;9.60;7.40;;;11.40;72.90;;;14.23;53.53;102861.34;5079883;28;20684;-62
2022/11/13 00:49:23;;;;;;;9.30;7.50;;;11.40;72.50;;;14.23;53.19;102867.50;5075064;28;20197;-62
2022/11/13 00:51:50;;;;;;;9.37;7.90;;;11.50;73.10;;;14.22;53.17;102864.97;5075020;28;20225;-61
2022/11/13 00:54:17;;;;;;;9.57;7.90;;;11.50;72.00;;;14.20;52.83;102861.63;5075160;28;20193;-59
2022/11/13 00:56:44;;;;;;;9.30;7.70;;;11.50;71.30;;;14.17;53.10;102859.28;5075032;28;20464;-61
2022/11/13 00:59:11;;;;;;;9.13;7.27;;;11.50;71.60;;;14.14;52.89;102856.94;5074582;28;20205;-61
2022/11/13 01:01:40;;;;;;;8.00;7.27;;;11.40;71.20;;;14.08;52.75;102857.50;5075557;28;20229;-61
2022/11/13 01:04:07;;;;;;;8.30;7.50;;;11.40;71.40;;;14.03;53.06;102854.44;5074849;28;20189;-62
2022/11/13 01:06:34;;;;;;;9.30;8.40;;;11.30;71.70;;;14.00;53.12;102854.75;5074788;28;20193;-62
2022/11/13 01:09:01;;;;;;;9.87;8.87;;;11.30;71.90;;;13.95;53.20;102846.41;5074883;28;20219;-62
2022/11/13 01:11:30;;;;;;;8.40;7.37;;;11.30;71.90;;;13.93;52.93;102854.47;5073759;28;20217;-61
2022/11/13 01:13:57;;;;;;;8.43;7.27;;;11.20;71.70;;;13.87;52.98;102851.59;5075587;28;20189;-61
2022/11/13 01:16:26;;;;;;;8.83;7.93;;;11.20;71.60;;;13.80;52.99;102853.13;5115083;28;20188;-60
2022/11/13 01:18:55;;;;;;;8.53;7.63;;;11.10;71.70;;;13.74;53.37;102856.38;5089576;28;20285;-61
2022/11/13 01:21:26;;;;;;;7.43;6.40;;;11.00;72.30;;;13.68;53.82;102851.63;5094399;28;20691;-61
2022/11/13 01:23:53;;;;;;;8.87;7.57;;;11.00;72.50;;;13.64;53.77;102847.59;5094732;28;20218;-61
2022/11/13 01:26:24;;;;;;;9.57;7.33;;;10.90;72.50;;;13.58;53.54;102844.56;5094874;28;20611;-61
2022/11/13 01:28:52;;;;;;;8.40;6.87;;;10.90;72.30;;;13.53;53.57;102838.84;5094599;28;20256;-60
2022/11/13 01:31:23;;;;;;;9.00;7.43;;;10.80;72.30;;;13.46;54.11;102835.09;5093983;28;20667;-62
2022/11/13 01:33:50;;;;;;;9.47;7.63;;;10.70;72.80;;;13.45;54.30;102833.41;5090344;28;20544;-60
2022/11/13 01:36:24;;;;;;;13.50;8.40;;;10.70;74.10;;;13.46;53.85;102829.81;5079775;28;20201;-59
2022/11/13 01:38:52;;;;;;;8.47;7.67;;;10.80;73.00;;;13.45;53.96;102828.13;5093600;28;20270;-61
2022/11/13 01:41:23;;;;;;;8.97;7.47;;;10.70;72.60;;;13.41;53.92;102821.47;5093936;28;20212;-61
2022/11/13 01:43:53;;;;;;;9.80;7.60;;;10.70;72.90;;;13.39;54.37;102818.13;5095063;28;20226;-60
2022/11/13 01:46:25;;;;;;;8.47;7.43;;;10.70;73.30;;;13.40;54.16;102825.09;5094356;28;20189;-61
2022/11/13 01:49:12;;;;;;;8.53;7.40;;;10.70;73.40;;;13.39;54.31;102818.13;5094731;28;20204;-63
2022/11/13 01:51:48;;;;;;;9.83;6.93;;;10.70;73.40;;;13.38;54.32;102811.16;5092063;28;20212;-62
2022/11/13 01:54:21;;;;;;;7.07;6.37;;;10.70;73.50;;;13.39;54.15;102804.91;5094576;28;20199;-61
2022/11/13 01:56:50;;;;;;;7.80;6.80;;;10.60;73.30;;;13.41;54.14;102799.44;5094293;28;20192;-60
2022/11/13 01:59:23;;;;;;;9.63;7.80;;;10.60;73.20;;;13.40;54.16;102796.00;5094131;28;20586;-60
2022/11/13 02:01:50;;;;;;;9.50;7.30;;;10.60;73.20;;;13.40;54.31;102800.44;5094007;28;20326;-61
2022/11/13 02:04:17;;;;;;;7.80;7.07;;;10.70;73.40;;;13.41;54.44;102797.66;5093686;28;20196;-59
2022/11/13 02:06:50;;;;;;;8.30;7.50;;;10.70;73.40;;;13.41;54.04;102786.22;5086918;28;20189;-61
2022/11/13 02:09:22;;;;;;;8.77;7.87;;;10.70;73.20;;;13.42;54.10;102787.91;5092495;28;20561;-60
2022/11/13 02:11:51;;;;;;;8.90;7.07;;;10.70;73.00;;;13.41;54.02;102789.72;5092679;28;20269;-61
2022/11/13 02:14:21;;;;;;;10.13;6.57;;;10.70;73.10;;;13.41;54.14;102787.06;5097425;28;20244;-60
2022/11/13 02:16:55;;;;;;;7.93;7.13;;;10.70;73.20;;;13.41;54.07;102789.72;5114033;28;20687;-61
2022/11/13 02:19:28;;;;;;;9.83;7.33;;;10.70;73.10;;;13.43;53.88;102781.66;5080847;28;20740;-61
2022/11/13 02:22:09;;;;;;;7.53;6.70;;;10.70;72.80;;;13.39;54.01;102781.09;5093290;28;20313;-59
2022/11/13 02:24:42;;;;;;;8.63;7.23;;;10.60;72.80;;;13.39;54.05;102777.59;5091749;28;20200;-60
2022/11/13 02:27:22;;;;;;;7.93;7.13;;;10.60;73.00;;;13.37;54.21;102767.19;5108737;28;20621;-61
2022/11/13 02:29:49;;;;;;;8.13;6.93;;;10.60;73.00;;;13.38;54.17;102768.03;5093599;28;20665;-60
2022/11/13 02:32:16;;;;;;;8.03;7.20;;;10.60;73.10;;;13.39;54.07;102774.97;5093068;28;20623;-61
2022/11/13 02:34:43;;;;;;;7.30;6.60;;;10.60;73.20;;;13.42;54.04;102756.16;5093827;28;20664;-60
2022/11/13 02:37:10;;;;;;;7.47;6.77;;;10.70;73.10;;;13.45;54.04;102769.94;5091711;28;20196;-61
2022/11/13 02:39:39;;;;;;;8.37;6.83;;;10.70;72.90;;;13.46;54.06;102763.66;5092499;28;20216;-61
2022/11/13 02:42:06;;;;;;;10.00;6.80;;;10.70;73.10;;;13.48;53.74;102767.00;5084463;28;20685;-61
2022/11/13 02:44:33;;;;;;;10.40;7.33;;;10.70;72.60;;;13.47;53.60;102761.88;5073541;28;20630;-61
2022/11/13 02:47:00;;;;;;;8.30;6.83;;;10.70;72.50;;;13.46;53.38;102761.03;5073692;28;20243;-61
2022/11/13 02:49:27;;;;;;;7.80;6.27;;;10.70;72.10;;;13.43;53.53;102755.22;5093359;28;20189;-60
2022/11/13 02:51:54;;;;;;;7.23;6.23;;;10.70;72.50;;;13.40;53.59;102751.03;5079030;28;20221;-61
2022/11/13 02:54:21;;;;;;;6.57;5.87;;;10.60;72.40;;;13.35;53.52;102753.25;5072940;28;20205;-60
2022/11/13 02:56:49;;;;;;;8.03;7.03;;;10.60;72.30;;;13.28;53.91;102752.16;5074035;28;20196;-61
2022/11/13 02:59:16;;;;;;;7.10;6.40;;;10.50;72.70;;;13.25;53.98;102747.16;5073334;28;20236;-61
2022/11/13 03:01:43;;;;;;;7.20;5.83;;;10.50;72.80;;;13.22;53.95;102755.38;5072969;28;20281;-61
2022/11/13 03:04:10;;;;;;;9.50;6.53;;;10.50;72.80;;;13.19;53.90;102742.41;5073281;28;20280;-61
2022/11/13 03:06:37;;;;;;;7.00;6.40;;;10.40;73.00;;;13.16;54.28;102753.31;5076623;28;20222;-61
2022/11/13 03:09:04;;;;;;;7.17;6.43;;;10.40;73.60;;;13.15;54.49;102748.97;5092539;28;20231;-61
2022/11/13 03:11:31;;;;;;;6.97;6.30;;;10.30;73.80;;;13.15;54.50;102748.97;5091782;28;20649;-61
2022/11/13 03:13:59;;;;;;;6.63;6.03;;;10.30;73.80;;;13.15;54.41;102735.75;5107657;28;20207;-61
2022/11/13 03:16:27;;;;;;;10.53;7.07;;;10.30;73.50;;;13.14;54.35;102747.31;5113526;28;20192;-61
2022/11/13 03:18:55;;;;;;;8.87;7.00;;;10.30;73.40;;;13.12;54.33;102741.31;5096915;28;20189;-60
2022/11/13 03:21:23;;;;;;;8.63;7.37;;;10.30;73.60;;;13.10;54.25;102732.69;5092464;28;20604;-61
2022/11/13 03:23:50;;;;;;;8.00;7.00;;;10.30;73.60;;;13.08;54.60;102732.00;5092708;28;20208;-59
2022/11/13 03:26:17;;;;;;;7.60;6.53;;;10.30;74.10;;;13.10;54.48;102729.25;5093147;28;20617;-61
2022/11/13 03:28:44;;;;;;;6.93;6.23;;;10.30;74.00;;;13.08;54.48;102724.09;5092984;28;20188;-61
2022/11/13 03:31:13;;;;;;;7.00;6.27;;;10.30;73.70;;;13.08;54.44;102724.09;5090015;28;20212;-60
2022/11/13 03:33:40;;;;;;;12.47;7.10;;;10.30;74.00;;;13.09;54.67;102733.69;5093208;28;20617;-61
2022/11/13 03:36:08;;;;;;;7.10;6.40;;;10.30;74.20;;;13.11;54.92;102723.81;5093432;28;20529;-61
2022/11/13 03:38:35;;;;;;;7.60;6.83;;;10.30;74.00;;;13.14;54.73;102717.41;5092905;28;20196;-64
2022/11/13 03:41:02;;;;;;;8.93;7.40;;;10.40;73.90;;;13.15;54.37;102725.19;5090737;28;20273;-60
2022/11/13 03:43:30;;;;;;;7.30;6.27;;;10.30;73.30;;;13.13;54.29;102721.84;5092738;28;20196;-60
2022/11/13 03:45:57;;;;;;;7.70;6.77;;;10.30;73.40;;;13.11;54.41;102723.81;5088853;28;20213;-61
2022/11/13 03:48:25;;;;;;;8.07;6.70;;;10.30;73.40;;;13.09;54.12;102720.47;5085589;28;20269;-60
2022/11/13 03:50:54;;;;;;;7.87;7.17;;;10.30;73.40;;;13.09;54.52;102724.91;5092634;28;20195;-58
2022/11/13 03:53:21;;;;;;;9.03;7.13;;;10.30;73.80;;;13.11;54.61;102718.53;5092912;28;20193;-59
2022/11/13 03:55:48;;;;;;;7.70;6.47;;;10.30;73.80;;;13.13;54.50;102721.84;5085328;28;20193;-60
2022/11/13 03:58:16;;;;;;;8.20;6.77;;;10.40;73.90;;;13.16;54.34;102726.03;5073543;28;20235;-61
2022/11/13 04:00:44;;;;;;;8.50;6.60;;;10.40;73.40;;;13.14;54.36;102728.81;5073019;28;20209;-61
2022/11/13 04:03:11;;;;;;;8.07;6.70;;;10.40;73.30;;;13.12;54.33;102716.72;5074825;28;20338;-62
2022/11/13 04:05:41;;;;;;;7.87;6.57;;;10.40;73.40;;;13.11;54.57;102718.53;5076555;28;20220;-61
2022/11/13 04:08:09;;;;;;;9.83;7.20;;;10.40;73.60;;;13.12;54.23;102725.47;5075749;28;20178;-60
2022/11/13 04:10:36;;;;;;;7.53;6.73;;;10.40;73.40;;;13.10;54.43;102716.84;5090610;28;20192;-61
2022/11/13 04:13:03;;;;;;;9.23;6.90;;;10.40;73.50;;;13.12;54.66;102719.34;5095742;28;20566;-61
2022/11/13 04:15:30;;;;;;;7.50;6.70;;;10.40;73.60;;;13.15;54.38;102726.97;5101569;28;20201;-60
2022/11/13 04:17:57;;;;;;;7.33;6.63;;;10.40;73.40;;;13.14;54.33;102723.53;5096311;28;20660;-61
2022/11/13 04:20:26;;;;;;;8.03;7.23;;;10.40;73.30;;;13.16;54.43;102721.56;5094583;28;20261;-61
2022/11/13 04:22:55;;;;;;;8.93;7.70;;;10.40;73.30;;;13.17;54.50;102723.22;5077222;28;20311;-61
2022/11/13 04:25:22;;;;;;;8.13;6.50;;;10.40;73.30;;;13.17;54.11;102723.22;5075579;28;20242;-61
2022/11/13 04:27:50;;;;;;;7.47;6.70;;;10.40;73.70;;;13.18;54.22;102718.78;5078213;28;20189;-60
2022/11/13 04:30:18;;;;;;;8.43;6.67;;;10.50;73.30;;;13.20;54.01;102717.66;5081821;28;20251;-61
2022/11/13 04:32:45;;;;;;;8.10;7.30;;;10.50;72.90;;;13.19;54.17;102721.25;5077436;28;20929;-61
2022/11/13 04:35:12;;;;;;;7.50;6.70;;;10.50;72.90;;;13.18;54.11;102711.69;5096034;28;20188;-61
2022/11/13 04:37:39;;;;;;;8.43;6.80;;;10.50;72.70;;;13.17;53.96;102712.66;5095727;28;20241;-62
2022/11/13 04:40:09;;;;;;;7.57;6.73;;;10.50;72.60;;;13.15;53.84;102708.47;5095467;28;20220;-61
2022/11/13 04:42:48;;;;;;;8.50;7.53;;;10.50;72.70;;;13.13;54.07;102716.56;5085858;28;20217;-60
2022/11/13 04:45:17;;;;;;;7.87;6.80;;;10.40;72.50;;;13.08;53.98;102712.66;5075791;28;20246;-61
2022/11/13 04:47:44;;;;;;;7.83;6.90;;;10.40;72.70;;;13.05;54.42;102713.75;5086974;28;20193;-59
2022/11/13 04:50:13;;;;;;;9.40;7.87;;;10.30;73.00;;;13.03;54.53;102709.56;5095179;28;20204;-61
2022/11/13 04:52:40;;;;;;;8.87;7.27;;;10.30;73.40;;;13.04;54.13;102706.81;5094998;28;20689;-60
2022/11/13 04:55:10;;;;;;;12.17;9.67;;;10.30;73.00;;;13.02;54.39;102697.34;5095299;28;20210;-60
2022/11/13 04:57:38;;;;;;;12.03;7.60;;;10.30;73.00;;;12.97;54.17;102695.13;5077695;28;20537;-61
2022/11/13 05:00:08;;;;;;;9.20;6.67;;;10.30;72.90;;;12.92;54.04;102710.59;5074596;28;20217;-62
2022/11/13 05:02:35;;;;;;;8.87;7.80;;;10.20;72.80;;;12.86;54.43;102697.91;5074330;28;20213;-62
2022/11/13 05:05:03;;;;;;;8.27;7.20;;;10.20;73.40;;;12.81;54.62;102700.19;5075174;28;20650;-61
2022/11/13 05:07:31;;;;;;;9.67;7.33;;;10.10;73.40;;;12.77;54.74;102694.31;5075170;28;20666;-59
2022/11/13 05:09:58;;;;;;;8.40;7.50;;;10.10;73.80;;;12.74;55.06;102691.94;5078198;28;20242;-59
2022/11/13 05:12:26;;;;;;;9.20;7.50;;;10.00;74.00;;;12.73;54.91;102692.94;5093665;28;20699;-61
2022/11/13 05:14:53;;;;;;;7.87;7.10;;;10.00;74.30;;;12.72;55.09;102695.69;5093101;28;20657;-59
2022/11/13 05:17:22;;;;;;;7.87;7.07;;;10.00;74.30;;;12.70;54.84;102681.81;5095806;28;20676;-61
2022/11/13 05:19:49;;;;;;;11.90;8.13;;;9.90;75.00;;;12.67;54.85;102682.09;5094781;28;20208;-61
2022/11/13 05:22:15;;;;;;;10.53;7.73;;;9.90;75.00;;;12.62;55.04;102677.22;5094463;28;20292;-61
2022/11/13 05:24:42;;;;;;;9.37;7.10;;;9.90;75.40;;;12.59;55.10;102674.88;5094032;28;20184;-60
2022/11/13 05:27:09;;;;;;;11.50;7.20;;;9.90;75.30;;;12.53;55.30;102670.13;5094855;28;20249;-60
2022/11/13 05:29:44;;;;;;;9.20;8.07;;;9.80;75.60;;;12.49;55.43;102662.63;5078063;28;20192;-61
2022/11/13 05:32:11;;;;;;;8.40;7.60;;;9.70;75.40;;;12.44;55.58;102660.41;5073243;28;20216;-62
2022/11/13 05:34:38;;;;;;;9.10;7.43;;;9.70;75.70;;;12.39;55.31;102657.34;5074333;28;20193;-61
2022/11/13 05:37:05;;;;;;;9.10;8.10;;;9.60;75.80;;;12.36;55.74;102652.34;5090086;28;20189;-62
2022/11/13 05:39:32;;;;;;;8.30;7.47;;;9.60;76.50;;;12.36;55.99;102651.53;5090467;28;20242;-61
2022/11/13 05:41:59;;;;;;;7.77;6.87;;;9.60;76.90;;;12.36;56.33;102648.88;5090407;28;20262;-60
2022/11/13 05:44:26;;;;;;;11.77;8.13;;;9.60;77.70;;;12.38;56.17;102650.41;5074363;28;20691;-61
2022/11/13 05:46:54;;;;;;;9.13;7.83;;;9.60;76.80;;;12.40;56.01;102652.91;5074190;28;20197;-61
2022/11/13 05:49:21;;;;;;;8.03;7.23;;;9.60;76.50;;;12.41;56.08;102657.22;5094499;28;20671;-61
2022/11/13 05:51:48;;;;;;;9.03;8.13;;;9.70;76.70;;;12.43;56.14;102655.28;5093454;28;20204;-60
2022/11/13 05:54:15;;;;;;;8.47;7.47;;;9.70;76.70;;;12.43;56.14;102657.91;5094403;28;20185;-62
2022/11/13 05:56:42;;;;;;;7.87;7.00;;;9.70;76.60;;;12.44;55.85;102659.56;5082914;28;20190;-59
2022/11/13 05:59:09;;;;;;;9.33;8.40;;;9.70;76.60;;;12.46;56.12;102652.34;5073823;28;20190;-61
2022/11/13 06:01:39;;;;;;;10.57;8.70;;;9.70;76.60;;;12.50;55.50;102653.75;5073297;28;20538;-61
2022/11/13 06:04:09;;;;;;;16.40;8.47;;;9.80;77.00;;;12.50;55.60;102653.75;5073383;28;20185;-61
2022/11/13 06:06:36;;;;;;;9.70;8.57;;;9.80;75.90;;;12.48;55.94;102656.50;5082511;28;20694;-61
2022/11/13 06:09:05;;;;;;;10.10;8.33;;;9.80;76.00;;;12.46;55.86;102657.63;5098062;28;20192;-61
2022/11/13 06:11:32;;;;;;;9.23;7.93;;;9.70;76.20;;;12.46;55.99;102657.63;5073092;28;20217;-62
2022/11/13 06:14:00;;;;;;;8.57;7.67;;;9.70;76.30;;;12.46;55.69;102654.97;5084869;28;20196;-61
2022/11/13 06:16:32;;;;;;;8.73;7.80;;;9.70;76.00;;;12.46;55.48;102650.53;5114048;28;20184;-59
2022/11/13 06:19:02;;;;;;;11.57;8.30;;;9.80;76.00;;;12.44;55.32;102643.72;5100639;28;20200;-61
2022/11/13 06:21:34;;;;;;;8.33;7.50;;;9.70;75.30;;;12.36;55.32;102640.97;5102815;28;20277;-61
2022/11/13 06:24:02;;;;;;;10.93;7.43;;;9.70;75.30;;;12.29;55.59;102639.84;5101658;28;20195;-61
2022/11/13 06:26:32;;;;;;;9.70;7.93;;;9.60;75.50;;;12.23;55.45;102636.78;5096564;28;20595;-61
2022/11/13 06:29:02;;;;;;;9.93;8.70;;;9.50;75.50;;;12.16;55.59;102638.31;5093436;28;20253;-63
2022/11/13 06:31:33;;;;;;;8.77;7.87;;;9.50;75.80;;;12.10;55.75;102636.22;5093312;28;20200;-61
2022/11/13 06:34:00;;;;;;;9.43;8.47;;;9.40;76.00;;;12.07;55.78;102630.38;5089472;28;20197;-61
2022/11/13 06:36:32;;;;;;;8.97;7.97;;;9.30;76.20;;;12.02;56.09;102625.53;5073336;28;20189;-60
2022/11/13 06:38:59;;;;;;;9.17;7.90;;;9.30;76.40;;;12.00;56.20;102630.13;5090636;28;20621;-61
2022/11/13 06:41:30;;;;;;;9.87;8.03;;;9.20;76.70;;;11.98;56.29;102626.75;5093041;28;20699;-62
2022/11/13 06:43:58;;;;;;;9.33;8.27;;;9.20;76.70;;;11.96;56.00;102631.34;5093572;28;20183;-60
2022/11/13 06:46:30;;;;;;;11.17;8.10;;;9.20;76.80;;;11.93;56.20;102633.44;5093948;28;20280;-61
2022/11/13 06:48:58;;;;;;;9.50;8.60;;;9.10;76.60;;;11.90;56.32;102631.06;5081953;28;20193;-60
2022/11/13 06:51:27;;;;;;;8.97;8.07;;;9.10;77.00;;;11.88;56.38;102633.84;5073090;28;20247;-60
2022/11/13 06:53:57;;;;;;;10.00;8.77;;;9.10;76.90;;;11.85;56.24;102628.81;5073593;28;20193;-59
2022/11/13 06:56:25;;;;;;;10.07;8.33;;;9.00;77.70;;;11.83;56.36;102632.56;5073405;28;20584;-61
2022/11/13 06:58:53;;;;;;;9.70;8.70;;;9.00;77.20;;;11.81;56.78;102630.09;5074030;28;20239;-61
2022/11/13 07:01:24;;;;;;;9.47;7.73;;;9.00;77.40;;;11.82;56.80;102636.16;5075382;28;20236;-61
2022/11/13 07:03:52;;;;;;;9.53;8.53;;;9.00;77.60;;;11.83;56.60;102633.41;5093257;28;20196;-62
2022/11/13 07:06:23;;;;;;;9.47;8.57;;;9.00;77.40;;;11.83;56.36;102628.13;5093424;28;20192;-62
2022/11/13 07:08:51;;;;;;;10.93;8.37;;;9.00;78.20;;;11.83;56.57;102622.84;5093138;28;20656;-61
2022/11/13 07:11:22;;;;;;;11.67;9.30;;;9.00;77.50;;;11.84;56.45;102619.22;5092078;28;20201;-61
2022/11/13 07:13:50;;;;;;;10.63;8.90;;;9.00;77.40;;;11.85;56.63;102626.19;5093008;28;20176;-61
2022/11/13 07:16:17;;;;;;;9.63;8.33;;;9.00;77.80;;;11.87;56.47;102613.69;5106576;28;20303;-61
2022/11/13 07:18:49;;;;;;;9.70;8.33;;;9.00;77.40;;;11.89;56.47;102614.38;5091745;28;20189;-60
2022/11/13 07:21:16;;;;;;;10.33;8.47;;;9.00;77.30;;;11.92;56.59;102610.63;5092575;28;20241;-61
2022/11/13 07:23:43;;;;;;;9.80;8.37;;;9.00;77.10;;;11.94;56.30;102608.69;5092931;28;20746;-60
2022/11/13 07:26:10;;;;;;;9.30;8.00;;;9.00;77.40;;;11.97;56.06;102604.00;5093398;28;20261;-61
2022/11/13 07:28:39;;;;;;;12.20;9.90;;;9.00;77.40;;;11.99;56.38;102607.31;5092019;28;20222;-60
2022/11/13 07:31:08;;;;;;;10.20;9.17;;;9.10;77.40;;;11.95;56.19;102600.66;5080473;28;20329;-61
2022/11/13 07:33:35;;;;;;;10.47;9.37;;;9.10;77.30;;;11.91;56.13;102607.16;5084177;28;20288;-61
2022/11/13 07:36:02;;;;;;;10.03;8.87;;;9.10;77.40;;;11.92;56.44;102606.19;5093347;28;20225;-62
2022/11/13 07:38:30;;;;;;;9.43;8.40;;;9.10;77.50;;;11.96;56.88;102602.31;5096344;28;20237;-62
2022/11/13 07:40:58;;;;;;;10.47;8.87;;;9.10;78.00;;;12.05;57.03;102612.03;5096324;28;20220;-62
2022/11/13 07:43:26;;;;;;;11.97;9.67;;;9.20;78.40;;;12.17;56.66;102610.94;5097155;28;20486;-61
2022/11/13 07:45:57;;;;;;;11.10;9.40;;;9.30;78.50;;;12.29;56.75;102616.09;5077920;28;20246;-60
2022/11/13 07:48:26;;;;;;;11.03;9.37;;;9.40;78.40;;;12.43;56.41;102610.38;5095572;28;20237;-62
2022/11/13 07:50:58;;;;;;;11.03;9.00;;;9.50;78.00;;;12.55;56.38;102611.91;5096380;28;20267;-59
2022/11/13 07:53:25;;;;;;;10.37;9.37;;;9.60;77.60;;;12.64;55.97;102598.69;5097198;28;20181;-60
2022/11/13 07:55:52;;;;;;;10.53;9.43;;;9.60;77.40;;;12.74;55.56;102602.13;5096398;28;20193;-61
2022/11/13 07:58:19;;;;;;;12.83;10.07;;;9.70;77.40;;;12.82;55.54;102601.41;5090536;28;20592;-62
2022/11/13 08:00:46;;;;;;;14.27;10.90;;;9.80;76.90;;;12.81;55.34;102594.47;5094277;28;20212;-60
2022/11/13 08:03:17;;;;;;;11.83;10.63;;;9.90;76.80;;;12.75;55.72;102605.59;5096596;28;20201;-61
2022/11/13 08:05:44;;;;;;;13.77;11.53;;;9.90;76.80;;;12.65;55.78;102605.63;5096682;28;20180;-61
2022/11/13 08:08:13;;;;;;;14.77;11.83;;;9.90;76.80;;;12.53;56.16;102601.47;5096969;28;20192;-59
2022/11/13 08:10:40;;;;;;;14.00;12.50;;;9.80;76.90;;;12.44;56.60;102596.19;5080547;28;20193;-60
2022/11/13 08:13:09;;;;;;;13.77;12.20;;;9.80;77.00;;;12.28;57.26;102595.94;5087587;28;20198;-62
2022/11/13 08:15:37;;;;;;;14.63;12.00;;;9.70;77.10;;;12.20;57.59;102602.75;5110947;28;20200;-62
2022/11/13 08:18:05;;;;;;;13.87;11.53;;;9.70;77.50;;;12.14;57.80;102599.84;5106727;28;20737;-60
2022/11/13 08:20:33;;;;;;;14.07;12.53;;;9.70;77.80;;;12.15;57.77;102599.69;5095313;28;20253;-60
2022/11/13 08:23:03;;;;;;;13.27;11.30;;;9.70;78.00;;;12.18;57.83;102599.41;5095556;28;20212;-57
2022/11/13 08:25:32;;;;;;;13.37;11.93;;;9.70;78.10;;;12.26;57.44;102603.16;5096198;28;20193;-62
2022/11/13 08:27:59;;;;;;;13.50;11.70;;;9.70;78.20;;;12.35;57.82;102605.81;5077011;28;20193;-62
2022/11/13 08:30:27;;;;;;;12.47;11.17;;;9.70;78.20;;;12.49;57.21;102599.25;5075235;28;20219;-60
2022/11/13 08:32:55;;;;;;;13.80;11.93;;;9.80;78.30;;;12.61;57.16;102598.13;5076119;28;20220;-61
2022/11/13 08:35:22;;;;;;;12.53;11.23;;;9.80;78.30;;;12.75;56.93;102595.88;5076175;28;20255;-61
2022/11/13 08:38:01;;;;;;;15.53;11.93;;;9.90;78.30;;;12.84;56.59;102594.16;5087705;28;20177;-61
2022/11/13 08:40:28;;;;;;;11.77;10.57;;;10.00;77.00;;;12.95;56.37;102593.16;5089007;28;20575;-61
2022/11/13 08:42:58;;;;;;;12.70;11.40;;;10.00;76.90;;;13.04;56.21;102601.06;5074756;28;20274;-61
2022/11/13 08:45:26;;;;;;;12.60;11.30;;;10.10;76.60;;;13.11;56.15;102596.91;5075411;28;20677;-61
2022/11/13 08:47:53;;;;;;;13.73;11.90;;;10.20;76.50;;;13.18;56.09;102597.97;5075167;28;20623;-62
2022/11/13 08:50:20;;;;;;;16.30;11.73;;;10.30;76.50;;;13.24;55.58;102602.69;5075292;28;20734;-58
2022/11/13 08:52:52;;;;;;;14.20;12.43;;;10.30;76.00;;;13.29;55.42;102599.59;5095356;28;20235;-61
2022/11/13 08:55:21;;;;;;;13.60;12.30;;;10.40;75.70;;;13.27;55.31;102602.41;5082015;28;20181;-61
2022/11/13 08:57:48;;;;;;;15.07;12.37;;;10.40;75.20;;;13.31;55.38;102593.19;5089712;28;20214;-61
2022/11/13 09:00:16;;;;;;;13.97;11.90;;;10.50;75.30;;;13.37;55.43;102584.69;5095178;28;20204;-62
2022/11/13 09:02:44;;;;;;;15.97;12.60;;;10.60;75.40;;;13.42;55.23;102590.38;5094665;28;20261;-61
2022/11/13 09:05:11;;;;;;;14.07;12.53;;;10.60;75.00;;;13.46;55.13;102588.25;5094530;28;20220;-60
2022/11/13 09:07:38;;;;;;;13.93;12.53;;;10.60;74.90;;;13.43;55.12;102586.72;5094554;28;20192;-61
2022/11/13 09:10:06;;;;;;;15.10;12.83;;;10.70;74.60;;;13.41;54.74;102583.38;5094111;28;20200;-61
2022/11/13 09:12:35;;;;;;;14.20;12.77;;;10.70;74.10;;;13.46;54.86;102585.59;5094469;28;20208;-61
2022/11/13 09:15:02;;;;;;;13.10;11.57;;;10.80;74.30;;;13.51;54.90;102584.19;5104319;28;20671;-60
2022/11/13 09:17:29;;;;;;;14.40;12.53;;;10.80;74.30;;;13.61;54.70;102584.13;5109570;28;20234;-62
2022/11/13 09:19:56;;;;;;;14.87;12.23;;;10.80;74.20;;;13.69;54.60;102586.88;5092601;28;20200;-62
2022/11/13 09:22:30;;;;;;;15.97;12.97;;;10.90;74.10;;;14.01;54.25;102581.06;5094252;28;20549;-61
2022/11/13 09:24:56;;;;;;;14.87;13.30;;;11.00;74.30;;;14.29;52.88;102569.38;5094752;28;20673;-60
2022/11/13 09:27:23;;;;;;;15.30;13.13;;;11.10;73.10;;;14.53;52.06;102577.53;5094876;28;20196;-60
2022/11/13 09:29:52;;;;;;;13.33;11.93;;;11.30;72.70;;;14.79;52.04;102578.38;5094512;28;20237;-61
2022/11/13 09:32:21;;;;;;;13.53;11.93;;;11.50;72.80;;;14.91;51.59;102582.44;5090151;28;20204;-58
2022/11/13 09:34:48;;;;;;;14.07;12.57;;;11.70;71.90;;;14.90;51.25;102583.41;5074093;28;20546;-60
2022/11/13 09:37:15;;;;;;;13.57;12.10;;;11.80;70.90;;;14.93;51.24;102584.91;5073721;28;20715;-59
2022/11/13 09:39:42;;;;;;;13.80;12.33;;;12.00;70.50;;;14.96;51.05;102579.31;5074167;28;20194;-61
2022/11/13 09:42:17;;;;;;;13.13;11.83;;;12.10;70.20;;;15.08;51.09;102585.16;5073262;28;20213;-60
2022/11/13 09:44:52;;;;;;;13.53;12.07;;;12.20;70.40;;;15.32;50.83;102583.47;5073736;28;20184;-62
2022/11/13 09:47:26;;;;;;;13.50;12.10;;;12.30;70.50;;;15.48;50.12;102580.06;5078842;28;20196;-62
2022/11/13 09:50:01;;;;;;;13.07;11.77;;;12.40;70.10;;;15.59;49.78;102580.56;5091730;28;20196;-62
2022/11/13 09:52:35;;;;;;;13.40;11.50;;;12.50;69.70;;;15.70;49.83;102584.75;5093197;28;20212;-60
2022/11/13 09:55:04;;;;;;;18.93;13.87;;;12.60;69.50;;;15.82;49.82;102594.09;5093692;28;20248;-62
2022/11/13 09:57:41;;;;;;;13.97;12.57;;;12.70;68.80;;;16.02;48.88;102584.81;5093622;28;20222;-61
2022/11/13 10:00:14;;;;;;;12.67;11.37;;;12.90;68.50;;;16.33;48.59;102592.97;5093693;28;20237;-61
2022/11/13 10:02:57;;;;;;;12.47;11.23;;;13.10;68.20;;;16.72;47.95;102587.81;5094510;28;20549;-61
2022/11/13 10:05:41;;;;;;;14.50;11.83;;;13.40;67.90;;;16.99;47.41;102575.94;5084240;28;20205;-62
2022/11/13 10:08:16;;;;;;;12.47;11.17;;;13.70;67.50;;;17.08;46.65;102570.44;5073417;28;20665;-62
2022/11/13 10:10:50;;;;;;;12.60;11.40;;;13.90;65.80;;;17.09;46.35;102569.41;5072714;28;20702;-60
2022/11/13 10:13:37;;;;;;;11.90;10.70;;;14.10;64.70;;;17.06;46.35;102569.78;5073134;28;20193;-62
2022/11/13 10:16:19;;;;;;;14.07;12.00;;;14.20;64.10;;;16.97;46.51;102570.81;5110641;28;20196;-60
2022/11/13 10:18:49;;;;;;;12.53;11.23;;;14.20;63.80;;;16.91;46.72;102571.47;5097686;28;20230;-61